sensor_id;sensor_type;location;lat;lon;timestamp;P1;durP1;ratioP1;P2;durP2;ratioP2
64244;SDS011;50584;29.058;-110.966;2023-04-08T00:00:35;1.65;;;1.00;;
64244;SDS011;50584;29.058;-110.966;2023-04-08T00:03:02;1.15;;;1.00;;
64244;SDS011;50584;29.058;-110.966;2023-04-08T00:05:27;2.85;;;1.00;;
64244;SDS011;50584;29.058;-110.966;2023-04-08T00:07:53;1.38;;;0.90;;
64244;SDS011;50584;29.058;-110.966;2023-04-08T00:10:19;4.95;;;1.30;;
64244;SDS011;50584;29.058;-110.966;2023-04-08T00:12:46;3.75;;;1.13;;
64244;SDS011;50584;29.058;-110.966;2023-04-08T00:15:12;6.82;;;1.63;;
64244;SDS011;50584;29.058;-110.966;2023-04-08T00:17:37;3.33;;;1.20;;
64244;SDS011;50584;29.058;-110.966;2023-04-08T00:20:03;0.80;;;0.80;;
64244;SDS011;50584;29.058;-110.966;2023-04-08T00:22:30;8.95;;;1.50;;
64244;SDS011;50584;29.058;-110.966;2023-04-08T00:24:56;2.70;;;1.10;;
64244;SDS011;50584;29.058;-110.966;2023-04-08T00:27:22;3.85;;;1.00;;
64244;SDS011;50584;29.058;-110.966;2023-04-08T00:29:50;1.92;;;0.93;;
64244;SDS011;50584;29.058;-110.966;2023-04-08T00:32:15;1.10;;;1.02;;
64244;SDS011;50584;29.058;-110.966;2023-04-08T00:34:41;4.45;;;0.98;;
64244;SDS011;50584;29.058;-110.966;2023-04-08T00:37:07;1.15;;;0.90;;
64244;SDS011;50584;29.058;-110.966;2023-04-08T00:39:33;2.42;;;1.20;;
64244;SDS011;50584;29.058;-110.966;2023-04-08T00:41:59;4.22;;;1.00;;
64244;SDS011;50584;29.058;-110.966;2023-04-08T00:44:26;5.97;;;1.27;;
64244;SDS011;50584;29.058;-110.966;2023-04-08T00:46:52;3.78;;;1.30;;
64244;SDS011;50584;29.058;-110.966;2023-04-08T00:49:18;8.75;;;1.10;;
64244;SDS011;50584;29.058;-110.966;2023-04-08T00:51:43;3.30;;;1.10;;
64244;SDS011;50584;29.058;-110.966;2023-04-08T00:54:09;3.05;;;1.10;;
64244;SDS011;50584;29.058;-110.966;2023-04-08T00:56:35;3.63;;;1.05;;
64244;SDS011;50584;29.058;-110.966;2023-04-08T00:59:02;2.65;;;1.15;;
64244;SDS011;50584;29.058;-110.966;2023-04-08T01:03:58;1.20;;;1.15;;
64244;SDS011;50584;29.058;-110.966;2023-04-08T01:06:31;2.03;;;1.13;;
64244;SDS011;50584;29.058;-110.966;2023-04-08T01:08:59;2.67;;;1.10;;
64244;SDS011;50584;29.058;-110.966;2023-04-08T01:11:25;5.88;;;1.40;;
64244;SDS011;50584;29.058;-110.966;2023-04-08T01:13:52;6.05;;;1.40;;
64244;SDS011;50584;29.058;-110.966;2023-04-08T01:16:19;5.20;;;1.13;;
64244;SDS011;50584;29.058;-110.966;2023-04-08T01:18:46;4.32;;;1.30;;
64244;SDS011;50584;29.058;-110.966;2023-04-08T01:21:12;4.88;;;1.35;;
64244;SDS011;50584;29.058;-110.966;2023-04-08T01:24:00;7.10;;;1.30;;
64244;SDS011;50584;29.058;-110.966;2023-04-08T01:26:26;6.80;;;1.60;;
64244;SDS011;50584;29.058;-110.966;2023-04-08T01:28:54;2.72;;;1.50;;
64244;SDS011;50584;29.058;-110.966;2023-04-08T01:31:21;4.97;;;2.03;;
64244;SDS011;50584;29.058;-110.966;2023-04-08T01:33:47;4.35;;;1.95;;
64244;SDS011;50584;29.058;-110.966;2023-04-08T01:36:13;4.57;;;1.50;;
64244;SDS011;50584;29.058;-110.966;2023-04-08T01:38:39;6.78;;;1.67;;
64244;SDS011;50584;29.058;-110.966;2023-04-08T01:41:05;8.18;;;1.60;;
64244;SDS011;50584;29.058;-110.966;2023-04-08T01:43:33;6.88;;;1.55;;
64244;SDS011;50584;29.058;-110.966;2023-04-08T01:46:00;10.25;;;1.38;;
64244;SDS011;50584;29.058;-110.966;2023-04-08T01:48:26;5.18;;;1.20;;
64244;SDS011;50584;29.058;-110.966;2023-04-08T01:50:53;1.20;;;1.02;;
64244;SDS011;50584;29.058;-110.966;2023-04-08T01:53:20;5.80;;;1.30;;
64244;SDS011;50584;29.058;-110.966;2023-04-08T01:55:48;7.57;;;1.40;;
64244;SDS011;50584;29.058;-110.966;2023-04-08T01:58:17;11.90;;;1.80;;
64244;SDS011;50584;29.058;-110.966;2023-04-08T02:00:44;4.53;;;1.27;;
64244;SDS011;50584;29.058;-110.966;2023-04-08T02:03:11;9.25;;;1.50;;
64244;SDS011;50584;29.058;-110.966;2023-04-08T02:05:38;4.68;;;1.45;;
64244;SDS011;50584;29.058;-110.966;2023-04-08T02:08:04;4.85;;;1.20;;
64244;SDS011;50584;29.058;-110.966;2023-04-08T02:10:29;5.50;;;1.27;;
64244;SDS011;50584;29.058;-110.966;2023-04-08T02:12:55;4.95;;;1.45;;
64244;SDS011;50584;29.058;-110.966;2023-04-08T02:15:21;7.43;;;1.50;;
64244;SDS011;50584;29.058;-110.966;2023-04-08T02:17:51;19.40;;;1.58;;
64244;SDS011;50584;29.058;-110.966;2023-04-08T02:25:14;10.57;;;2.25;;
64244;SDS011;50584;29.058;-110.966;2023-04-08T02:27:40;25.23;;;2.78;;
64244;SDS011;50584;29.058;-110.966;2023-04-08T02:30:07;16.15;;;2.08;;
64244;SDS011;50584;29.058;-110.966;2023-04-08T02:32:33;72.03;;;3.75;;
64244;SDS011;50584;29.058;-110.966;2023-04-08T02:35:03;27.02;;;2.40;;
64244;SDS011;50584;29.058;-110.966;2023-04-08T02:37:32;6.80;;;2.78;;
64244;SDS011;50584;29.058;-110.966;2023-04-08T02:39:58;25.85;;;2.25;;
64244;SDS011;50584;29.058;-110.966;2023-04-08T02:42:24;32.80;;;2.70;;
64244;SDS011;50584;29.058;-110.966;2023-04-08T02:44:50;12.30;;;1.90;;
64244;SDS011;50584;29.058;-110.966;2023-04-08T02:47:16;36.42;;;3.25;;
64244;SDS011;50584;29.058;-110.966;2023-04-08T02:49:42;17.08;;;2.33;;
64244;SDS011;50584;29.058;-110.966;2023-04-08T02:52:07;38.65;;;3.60;;
64244;SDS011;50584;29.058;-110.966;2023-04-08T02:54:33;47.03;;;3.25;;
64244;SDS011;50584;29.058;-110.966;2023-04-08T02:56:59;33.15;;;6.20;;
64244;SDS011;50584;29.058;-110.966;2023-04-08T02:59:25;18.40;;;2.85;;
64244;SDS011;50584;29.058;-110.966;2023-04-08T03:01:51;20.63;;;4.35;;
64244;SDS011;50584;29.058;-110.966;2023-04-08T03:04:17;50.40;;;17.33;;
64244;SDS011;50584;29.058;-110.966;2023-04-08T03:06:42;30.13;;;13.88;;
64244;SDS011;50584;29.058;-110.966;2023-04-08T03:09:08;26.83;;;6.88;;
64244;SDS011;50584;29.058;-110.966;2023-04-08T03:11:34;8.35;;;2.60;;
64244;SDS011;50584;29.058;-110.966;2023-04-08T03:14:00;3.20;;;2.95;;
64244;SDS011;50584;29.058;-110.966;2023-04-08T03:16:25;22.45;;;4.85;;
64244;SDS011;50584;29.058;-110.966;2023-04-08T03:18:51;4.05;;;1.20;;
64244;SDS011;50584;29.058;-110.966;2023-04-08T03:21:17;7.60;;;1.92;;
64244;SDS011;50584;29.058;-110.966;2023-04-08T03:23:43;4.93;;;2.30;;
64244;SDS011;50584;29.058;-110.966;2023-04-08T03:26:09;12.30;;;4.25;;
64244;SDS011;50584;29.058;-110.966;2023-04-08T03:28:35;6.93;;;2.42;;
64244;SDS011;50584;29.058;-110.966;2023-04-08T03:31:03;7.47;;;2.13;;
64244;SDS011;50584;29.058;-110.966;2023-04-08T03:33:29;6.53;;;1.75;;
64244;SDS011;50584;29.058;-110.966;2023-04-08T03:35:54;10.35;;;2.70;;
64244;SDS011;50584;29.058;-110.966;2023-04-08T03:38:20;14.15;;;2.17;;
64244;SDS011;50584;29.058;-110.966;2023-04-08T03:40:46;8.98;;;3.30;;
64244;SDS011;50584;29.058;-110.966;2023-04-08T03:43:12;10.43;;;2.28;;
64244;SDS011;50584;29.058;-110.966;2023-04-08T03:45:38;6.22;;;1.88;;
64244;SDS011;50584;29.058;-110.966;2023-04-08T03:48:04;8.80;;;1.75;;
64244;SDS011;50584;29.058;-110.966;2023-04-08T03:50:30;7.72;;;1.63;;
64244;SDS011;50584;29.058;-110.966;2023-04-08T03:52:56;8.52;;;1.73;;
64244;SDS011;50584;29.058;-110.966;2023-04-08T03:55:21;1.92;;;1.75;;
64244;SDS011;50584;29.058;-110.966;2023-04-08T03:57:47;13.32;;;2.65;;
64244;SDS011;50584;29.058;-110.966;2023-04-08T04:00:13;4.60;;;2.30;;
64244;SDS011;50584;29.058;-110.966;2023-04-08T04:02:39;3.92;;;2.30;;
64244;SDS011;50584;29.058;-110.966;2023-04-08T04:05:05;3.38;;;2.70;;
64244;SDS011;50584;29.058;-110.966;2023-04-08T04:07:31;9.77;;;2.90;;
64244;SDS011;50584;29.058;-110.966;2023-04-08T04:09:57;8.70;;;3.10;;
64244;SDS011;50584;29.058;-110.966;2023-04-08T04:12:22;11.23;;;3.30;;
64244;SDS011;50584;29.058;-110.966;2023-04-08T04:14:50;5.07;;;3.30;;
64244;SDS011;50584;29.058;-110.966;2023-04-08T04:17:16;9.40;;;3.40;;
64244;SDS011;50584;29.058;-110.966;2023-04-08T04:19:41;12.13;;;3.55;;
64244;SDS011;50584;29.058;-110.966;2023-04-08T04:22:07;10.05;;;3.40;;
64244;SDS011;50584;29.058;-110.966;2023-04-08T04:24:33;9.95;;;3.28;;
64244;SDS011;50584;29.058;-110.966;2023-04-08T04:26:59;16.45;;;3.75;;
64244;SDS011;50584;29.058;-110.966;2023-04-08T04:29:24;11.13;;;3.50;;
64244;SDS011;50584;29.058;-110.966;2023-04-08T04:31:50;7.47;;;4.20;;
64244;SDS011;50584;29.058;-110.966;2023-04-08T04:34:16;12.55;;;3.53;;
64244;SDS011;50584;29.058;-110.966;2023-04-08T04:36:42;12.63;;;3.50;;
64244;SDS011;50584;29.058;-110.966;2023-04-08T04:39:08;7.93;;;3.83;;
64244;SDS011;50584;29.058;-110.966;2023-04-08T04:41:33;18.85;;;5.03;;
64244;SDS011;50584;29.058;-110.966;2023-04-08T04:44:03;13.25;;;3.75;;
64244;SDS011;50584;29.058;-110.966;2023-04-08T04:46:28;6.07;;;3.50;;
64244;SDS011;50584;29.058;-110.966;2023-04-08T04:48:54;18.80;;;3.25;;
64244;SDS011;50584;29.058;-110.966;2023-04-08T04:51:20;13.65;;;3.50;;
64244;SDS011;50584;29.058;-110.966;2023-04-08T04:53:46;7.65;;;3.17;;
64244;SDS011;50584;29.058;-110.966;2023-04-08T04:56:14;10.10;;;3.53;;
64244;SDS011;50584;29.058;-110.966;2023-04-08T04:58:39;8.90;;;2.80;;
64244;SDS011;50584;29.058;-110.966;2023-04-08T05:01:06;5.85;;;2.72;;
64244;SDS011;50584;29.058;-110.966;2023-04-08T05:03:32;6.18;;;2.50;;
64244;SDS011;50584;29.058;-110.966;2023-04-08T05:05:57;5.18;;;2.30;;
64244;SDS011;50584;29.058;-110.966;2023-04-08T05:08:23;7.93;;;1.95;;
64244;SDS011;50584;29.058;-110.966;2023-04-08T05:10:49;11.40;;;2.30;;
64244;SDS011;50584;29.058;-110.966;2023-04-08T05:13:15;6.97;;;2.47;;
64244;SDS011;50584;29.058;-110.966;2023-04-08T05:15:41;9.23;;;1.80;;
64244;SDS011;50584;29.058;-110.966;2023-04-08T05:18:07;2.97;;;1.90;;
64244;SDS011;50584;29.058;-110.966;2023-04-08T05:20:33;7.90;;;2.17;;
64244;SDS011;50584;29.058;-110.966;2023-04-08T05:22:59;5.35;;;2.42;;
64244;SDS011;50584;29.058;-110.966;2023-04-08T05:25:25;6.28;;;3.42;;
64244;SDS011;50584;29.058;-110.966;2023-04-08T05:27:50;12.10;;;5.32;;
64244;SDS011;50584;29.058;-110.966;2023-04-08T05:30:17;18.17;;;5.15;;
64244;SDS011;50584;29.058;-110.966;2023-04-08T05:32:43;12.77;;;5.20;;
64244;SDS011;50584;29.058;-110.966;2023-04-08T05:35:09;20.75;;;6.07;;
64244;SDS011;50584;29.058;-110.966;2023-04-08T05:37:34;18.20;;;5.10;;
64244;SDS011;50584;29.058;-110.966;2023-04-08T05:40:00;16.67;;;4.82;;
64244;SDS011;50584;29.058;-110.966;2023-04-08T05:42:26;10.50;;;4.72;;
64244;SDS011;50584;29.058;-110.966;2023-04-08T05:44:52;14.60;;;4.78;;
64244;SDS011;50584;29.058;-110.966;2023-04-08T05:47:17;11.73;;;4.72;;
64244;SDS011;50584;29.058;-110.966;2023-04-08T05:49:43;9.70;;;4.80;;
64244;SDS011;50584;29.058;-110.966;2023-04-08T05:52:09;14.30;;;4.90;;
64244;SDS011;50584;29.058;-110.966;2023-04-08T05:54:35;14.98;;;3.85;;
64244;SDS011;50584;29.058;-110.966;2023-04-08T05:57:01;7.72;;;2.70;;
64244;SDS011;50584;29.058;-110.966;2023-04-08T05:59:27;11.02;;;1.85;;
64244;SDS011;50584;29.058;-110.966;2023-04-08T06:01:53;3.55;;;1.70;;
64244;SDS011;50584;29.058;-110.966;2023-04-08T06:04:19;3.03;;;1.70;;
64244;SDS011;50584;29.058;-110.966;2023-04-08T06:06:45;1.40;;;1.30;;
64244;SDS011;50584;29.058;-110.966;2023-04-08T06:09:11;6.00;;;1.50;;
64244;SDS011;50584;29.058;-110.966;2023-04-08T06:11:36;1.75;;;1.65;;
64244;SDS011;50584;29.058;-110.966;2023-04-08T06:14:02;8.75;;;3.08;;
64244;SDS011;50584;29.058;-110.966;2023-04-08T06:16:28;15.50;;;4.10;;
64244;SDS011;50584;29.058;-110.966;2023-04-08T06:18:54;10.55;;;4.20;;
64244;SDS011;50584;29.058;-110.966;2023-04-08T06:21:20;7.03;;;3.47;;
64244;SDS011;50584;29.058;-110.966;2023-04-08T06:23:45;9.80;;;3.75;;
64244;SDS011;50584;29.058;-110.966;2023-04-08T06:26:11;23.23;;;4.68;;
64244;SDS011;50584;29.058;-110.966;2023-04-08T06:28:37;22.02;;;5.32;;
64244;SDS011;50584;29.058;-110.966;2023-04-08T06:31:03;23.70;;;4.32;;
64244;SDS011;50584;29.058;-110.966;2023-04-08T06:33:29;16.13;;;4.38;;
64244;SDS011;50584;29.058;-110.966;2023-04-08T06:36:04;14.07;;;3.70;;
64244;SDS011;50584;29.058;-110.966;2023-04-08T06:38:30;12.13;;;3.95;;
64244;SDS011;50584;29.058;-110.966;2023-04-08T06:41:05;9.57;;;3.83;;
64244;SDS011;50584;29.058;-110.966;2023-04-08T06:43:32;15.07;;;3.83;;
64244;SDS011;50584;29.058;-110.966;2023-04-08T06:45:58;11.55;;;3.72;;
64244;SDS011;50584;29.058;-110.966;2023-04-08T06:48:24;11.77;;;3.58;;
64244;SDS011;50584;29.058;-110.966;2023-04-08T06:50:57;5.75;;;3.15;;
64244;SDS011;50584;29.058;-110.966;2023-04-08T06:53:23;5.82;;;2.67;;
64244;SDS011;50584;29.058;-110.966;2023-04-08T06:55:49;12.43;;;2.80;;
64244;SDS011;50584;29.058;-110.966;2023-04-08T06:58:15;9.43;;;2.85;;
64244;SDS011;50584;29.058;-110.966;2023-04-08T07:00:41;7.15;;;2.65;;
64244;SDS011;50584;29.058;-110.966;2023-04-08T07:03:08;5.50;;;2.97;;
64244;SDS011;50584;29.058;-110.966;2023-04-08T07:05:35;12.60;;;3.00;;
64244;SDS011;50584;29.058;-110.966;2023-04-08T07:08:01;11.05;;;3.35;;
64244;SDS011;50584;29.058;-110.966;2023-04-08T07:10:27;8.18;;;3.25;;
64244;SDS011;50584;29.058;-110.966;2023-04-08T07:12:53;13.27;;;3.75;;
64244;SDS011;50584;29.058;-110.966;2023-04-08T07:15:19;12.93;;;2.90;;
64244;SDS011;50584;29.058;-110.966;2023-04-08T07:17:44;9.25;;;3.22;;
64244;SDS011;50584;29.058;-110.966;2023-04-08T07:20:12;14.38;;;4.00;;
64244;SDS011;50584;29.058;-110.966;2023-04-08T07:22:40;16.60;;;4.20;;
64244;SDS011;50584;29.058;-110.966;2023-04-08T07:25:06;13.35;;;4.20;;
64244;SDS011;50584;29.058;-110.966;2023-04-08T07:27:32;9.80;;;3.80;;
64244;SDS011;50584;29.058;-110.966;2023-04-08T07:29:58;12.32;;;4.35;;
64244;SDS011;50584;29.058;-110.966;2023-04-08T07:32:24;14.82;;;4.50;;
64244;SDS011;50584;29.058;-110.966;2023-04-08T07:34:50;18.95;;;5.57;;
64244;SDS011;50584;29.058;-110.966;2023-04-08T07:37:16;17.52;;;5.75;;
64244;SDS011;50584;29.058;-110.966;2023-04-08T07:39:42;16.98;;;5.88;;
64244;SDS011;50584;29.058;-110.966;2023-04-08T07:42:08;20.55;;;6.50;;
64244;SDS011;50584;29.058;-110.966;2023-04-08T07:44:33;20.08;;;7.82;;
64244;SDS011;50584;29.058;-110.966;2023-04-08T07:47:00;18.73;;;7.65;;
64244;SDS011;50584;29.058;-110.966;2023-04-08T07:49:25;32.17;;;8.40;;
64244;SDS011;50584;29.058;-110.966;2023-04-08T07:51:51;28.17;;;8.02;;
64244;SDS011;50584;29.058;-110.966;2023-04-08T07:54:17;32.95;;;8.60;;
64244;SDS011;50584;29.058;-110.966;2023-04-08T07:56:43;19.90;;;7.60;;
64244;SDS011;50584;29.058;-110.966;2023-04-08T07:59:09;19.98;;;7.63;;
64244;SDS011;50584;29.058;-110.966;2023-04-08T08:01:35;28.80;;;8.00;;
64244;SDS011;50584;29.058;-110.966;2023-04-08T08:04:01;24.77;;;8.20;;
64244;SDS011;50584;29.058;-110.966;2023-04-08T08:06:27;29.45;;;8.27;;
64244;SDS011;50584;29.058;-110.966;2023-04-08T08:08:53;46.03;;;9.18;;
64244;SDS011;50584;29.058;-110.966;2023-04-08T08:11:19;36.22;;;9.18;;
64244;SDS011;50584;29.058;-110.966;2023-04-08T08:13:45;34.50;;;7.75;;
64244;SDS011;50584;29.058;-110.966;2023-04-08T08:16:11;31.20;;;6.45;;
64244;SDS011;50584;29.058;-110.966;2023-04-08T08:18:37;21.77;;;5.78;;
64244;SDS011;50584;29.058;-110.966;2023-04-08T08:21:04;19.38;;;5.38;;
64244;SDS011;50584;29.058;-110.966;2023-04-08T08:23:30;28.42;;;6.55;;
64244;SDS011;50584;29.058;-110.966;2023-04-08T08:26:03;25.77;;;5.05;;
64244;SDS011;50584;29.058;-110.966;2023-04-08T08:28:28;28.35;;;5.63;;
64244;SDS011;50584;29.058;-110.966;2023-04-08T08:30:54;26.23;;;5.78;;
64244;SDS011;50584;29.058;-110.966;2023-04-08T08:33:20;24.63;;;5.78;;
64244;SDS011;50584;29.058;-110.966;2023-04-08T08:35:46;18.88;;;5.30;;
64244;SDS011;50584;29.058;-110.966;2023-04-08T08:38:12;16.73;;;5.45;;
64244;SDS011;50584;29.058;-110.966;2023-04-08T08:40:38;18.48;;;5.95;;
64244;SDS011;50584;29.058;-110.966;2023-04-08T08:43:04;22.67;;;5.60;;
64244;SDS011;50584;29.058;-110.966;2023-04-08T08:45:30;24.75;;;5.20;;
64244;SDS011;50584;29.058;-110.966;2023-04-08T08:47:55;18.50;;;5.45;;
64244;SDS011;50584;29.058;-110.966;2023-04-08T08:50:22;11.82;;;4.28;;
64244;SDS011;50584;29.058;-110.966;2023-04-08T08:52:50;30.05;;;5.68;;
64244;SDS011;50584;29.058;-110.966;2023-04-08T08:55:17;16.58;;;4.82;;
64244;SDS011;50584;29.058;-110.966;2023-04-08T08:57:43;26.77;;;5.85;;
64244;SDS011;50584;29.058;-110.966;2023-04-08T09:00:09;18.48;;;5.20;;
64244;SDS011;50584;29.058;-110.966;2023-04-08T09:02:35;21.15;;;5.25;;
64244;SDS011;50584;29.058;-110.966;2023-04-08T09:05:02;23.80;;;5.20;;
64244;SDS011;50584;29.058;-110.966;2023-04-08T09:07:28;21.20;;;5.50;;
64244;SDS011;50584;29.058;-110.966;2023-04-08T09:09:55;28.85;;;7.03;;
64244;SDS011;50584;29.058;-110.966;2023-04-08T09:12:21;16.50;;;5.85;;
64244;SDS011;50584;29.058;-110.966;2023-04-08T09:14:47;34.53;;;6.07;;
64244;SDS011;50584;29.058;-110.966;2023-04-08T09:17:14;26.52;;;5.57;;
64244;SDS011;50584;29.058;-110.966;2023-04-08T09:20:02;24.50;;;5.43;;
64244;SDS011;50584;29.058;-110.966;2023-04-08T09:22:26;18.50;;;5.35;;
64244;SDS011;50584;29.058;-110.966;2023-04-08T09:24:52;17.67;;;5.28;;
64244;SDS011;50584;29.058;-110.966;2023-04-08T09:27:32;17.60;;;5.57;;
64244;SDS011;50584;29.058;-110.966;2023-04-08T09:30:18;12.57;;;5.03;;
64244;SDS011;50584;29.058;-110.966;2023-04-08T09:32:50;14.48;;;5.40;;
64244;SDS011;50584;29.058;-110.966;2023-04-08T09:35:17;16.20;;;5.60;;
64244;SDS011;50584;29.058;-110.966;2023-04-08T09:37:43;5.60;;;3.92;;
64244;SDS011;50584;29.058;-110.966;2023-04-08T09:40:08;13.18;;;3.15;;
64244;SDS011;50584;29.058;-110.966;2023-04-08T09:42:35;10.07;;;3.70;;
64244;SDS011;50584;29.058;-110.966;2023-04-08T09:45:03;18.45;;;3.63;;
64244;SDS011;50584;29.058;-110.966;2023-04-08T09:47:29;16.67;;;4.25;;
64244;SDS011;50584;29.058;-110.966;2023-04-08T09:50:01;20.40;;;4.38;;
64244;SDS011;50584;29.058;-110.966;2023-04-08T09:52:32;15.15;;;4.40;;
64244;SDS011;50584;29.058;-110.966;2023-04-08T09:55:02;16.20;;;4.53;;
64244;SDS011;50584;29.058;-110.966;2023-04-08T09:57:36;8.65;;;4.28;;
64244;SDS011;50584;29.058;-110.966;2023-04-08T10:00:11;8.48;;;3.72;;
64244;SDS011;50584;29.058;-110.966;2023-04-08T10:02:40;17.35;;;3.95;;
64244;SDS011;50584;29.058;-110.966;2023-04-08T10:05:07;10.43;;;3.72;;
64244;SDS011;50584;29.058;-110.966;2023-04-08T10:07:35;14.50;;;4.35;;
64244;SDS011;50584;29.058;-110.966;2023-04-08T10:10:01;23.95;;;4.47;;
64244;SDS011;50584;29.058;-110.966;2023-04-08T10:12:27;24.05;;;4.32;;
64244;SDS011;50584;29.058;-110.966;2023-04-08T10:17:37;14.75;;;4.55;;
64244;SDS011;50584;29.058;-110.966;2023-04-08T10:20:03;17.17;;;4.32;;
64244;SDS011;50584;29.058;-110.966;2023-04-08T10:27:42;13.60;;;4.28;;
64244;SDS011;50584;29.058;-110.966;2023-04-08T10:32:59;7.18;;;4.18;;
64244;SDS011;50584;29.058;-110.966;2023-04-08T10:35:31;4.20;;;3.60;;
64244;SDS011;50584;29.058;-110.966;2023-04-08T10:37:59;20.52;;;4.10;;
64244;SDS011;50584;29.058;-110.966;2023-04-08T10:40:25;10.27;;;4.30;;
64244;SDS011;50584;29.058;-110.966;2023-04-08T10:42:55;12.68;;;3.42;;
64244;SDS011;50584;29.058;-110.966;2023-04-08T10:45:20;9.88;;;3.20;;
64244;SDS011;50584;29.058;-110.966;2023-04-08T10:47:46;18.42;;;4.03;;
64244;SDS011;50584;29.058;-110.966;2023-04-08T10:50:16;10.52;;;3.92;;
64244;SDS011;50584;29.058;-110.966;2023-04-08T10:52:46;9.82;;;3.50;;
64244;SDS011;50584;29.058;-110.966;2023-04-08T10:55:11;7.40;;;3.70;;
64244;SDS011;50584;29.058;-110.966;2023-04-08T10:57:37;14.30;;;3.65;;
64244;SDS011;50584;29.058;-110.966;2023-04-08T11:00:05;12.43;;;4.00;;
64244;SDS011;50584;29.058;-110.966;2023-04-08T11:02:31;9.25;;;3.20;;
64244;SDS011;50584;29.058;-110.966;2023-04-08T11:04:58;6.78;;;3.33;;
64244;SDS011;50584;29.058;-110.966;2023-04-08T11:07:24;7.82;;;3.22;;
64244;SDS011;50584;29.058;-110.966;2023-04-08T11:09:51;8.63;;;3.00;;
64244;SDS011;50584;29.058;-110.966;2023-04-08T11:12:17;17.08;;;3.85;;
64244;SDS011;50584;29.058;-110.966;2023-04-08T11:14:43;5.97;;;3.03;;
64244;SDS011;50584;29.058;-110.966;2023-04-08T11:17:09;9.68;;;3.10;;
64244;SDS011;50584;29.058;-110.966;2023-04-08T11:19:35;11.73;;;3.28;;
64244;SDS011;50584;29.058;-110.966;2023-04-08T11:22:01;8.73;;;2.97;;
64244;SDS011;50584;29.058;-110.966;2023-04-08T11:24:27;6.40;;;2.95;;
64244;SDS011;50584;29.058;-110.966;2023-04-08T11:26:53;8.30;;;2.65;;
64244;SDS011;50584;29.058;-110.966;2023-04-08T11:29:19;3.00;;;2.60;;
64244;SDS011;50584;29.058;-110.966;2023-04-08T11:31:45;7.95;;;3.00;;
64244;SDS011;50584;29.058;-110.966;2023-04-08T11:34:20;4.38;;;2.55;;
64244;SDS011;50584;29.058;-110.966;2023-04-08T11:36:46;8.32;;;2.78;;
64244;SDS011;50584;29.058;-110.966;2023-04-08T11:39:12;9.25;;;2.63;;
64244;SDS011;50584;29.058;-110.966;2023-04-08T11:41:38;8.57;;;2.75;;
64244;SDS011;50584;29.058;-110.966;2023-04-08T11:44:04;10.60;;;2.75;;
64244;SDS011;50584;29.058;-110.966;2023-04-08T11:46:31;10.00;;;2.70;;
64244;SDS011;50584;29.058;-110.966;2023-04-08T11:48:58;9.93;;;3.10;;
64244;SDS011;50584;29.058;-110.966;2023-04-08T11:51:23;9.38;;;3.05;;
64244;SDS011;50584;29.058;-110.966;2023-04-08T11:53:50;11.45;;;2.75;;
64244;SDS011;50584;29.058;-110.966;2023-04-08T11:56:22;8.07;;;2.72;;
64244;SDS011;50584;29.058;-110.966;2023-04-08T11:58:49;5.60;;;2.70;;
64244;SDS011;50584;29.058;-110.966;2023-04-08T12:01:14;10.70;;;2.75;;
64244;SDS011;50584;29.058;-110.966;2023-04-08T12:03:53;8.45;;;2.92;;
64244;SDS011;50584;29.058;-110.966;2023-04-08T12:06:19;7.50;;;2.75;;
64244;SDS011;50584;29.058;-110.966;2023-04-08T12:08:45;11.00;;;2.35;;
64244;SDS011;50584;29.058;-110.966;2023-04-08T12:11:12;10.05;;;2.78;;
64244;SDS011;50584;29.058;-110.966;2023-04-08T12:13:40;5.80;;;2.63;;
64244;SDS011;50584;29.058;-110.966;2023-04-08T12:16:06;8.70;;;3.00;;
64244;SDS011;50584;29.058;-110.966;2023-04-08T12:18:32;7.75;;;2.63;;
64244;SDS011;50584;29.058;-110.966;2023-04-08T12:20:57;7.47;;;2.78;;
64244;SDS011;50584;29.058;-110.966;2023-04-08T12:23:23;7.38;;;2.83;;
64244;SDS011;50584;29.058;-110.966;2023-04-08T12:25:49;9.82;;;2.90;;
64244;SDS011;50584;29.058;-110.966;2023-04-08T12:28:15;10.48;;;2.67;;
64244;SDS011;50584;29.058;-110.966;2023-04-08T12:30:41;7.10;;;2.67;;
64244;SDS011;50584;29.058;-110.966;2023-04-08T12:33:07;7.57;;;2.58;;
64244;SDS011;50584;29.058;-110.966;2023-04-08T12:35:32;10.63;;;2.80;;
64244;SDS011;50584;29.058;-110.966;2023-04-08T12:37:58;6.43;;;3.03;;
64244;SDS011;50584;29.058;-110.966;2023-04-08T12:40:24;12.38;;;2.97;;
64244;SDS011;50584;29.058;-110.966;2023-04-08T12:42:50;6.38;;;3.33;;
64244;SDS011;50584;29.058;-110.966;2023-04-08T12:45:16;8.52;;;3.10;;
64244;SDS011;50584;29.058;-110.966;2023-04-08T12:47:42;6.50;;;2.90;;
64244;SDS011;50584;29.058;-110.966;2023-04-08T12:50:07;9.98;;;3.30;;
64244;SDS011;50584;29.058;-110.966;2023-04-08T12:52:34;8.88;;;3.10;;
64244;SDS011;50584;29.058;-110.966;2023-04-08T12:55:00;9.90;;;3.25;;
64244;SDS011;50584;29.058;-110.966;2023-04-08T12:57:26;14.05;;;4.43;;
64244;SDS011;50584;29.058;-110.966;2023-04-08T12:59:52;9.52;;;2.95;;
64244;SDS011;50584;29.058;-110.966;2023-04-08T13:02:18;5.97;;;2.97;;
64244;SDS011;50584;29.058;-110.966;2023-04-08T13:04:44;15.02;;;3.95;;
64244;SDS011;50584;29.058;-110.966;2023-04-08T13:07:10;7.47;;;3.17;;
64244;SDS011;50584;29.058;-110.966;2023-04-08T13:09:36;9.23;;;2.83;;
64244;SDS011;50584;29.058;-110.966;2023-04-08T13:12:01;6.75;;;3.33;;
64244;SDS011;50584;29.058;-110.966;2023-04-08T13:14:27;8.93;;;3.13;;
64244;SDS011;50584;29.058;-110.966;2023-04-08T13:16:53;4.32;;;2.55;;
64244;SDS011;50584;29.058;-110.966;2023-04-08T13:19:19;10.30;;;2.63;;
64244;SDS011;50584;29.058;-110.966;2023-04-08T13:21:45;6.22;;;3.22;;
64244;SDS011;50584;29.058;-110.966;2023-04-08T13:24:10;4.28;;;2.70;;
64244;SDS011;50584;29.058;-110.966;2023-04-08T13:26:37;12.00;;;2.58;;
64244;SDS011;50584;29.058;-110.966;2023-04-08T13:29:02;7.28;;;2.60;;
64244;SDS011;50584;29.058;-110.966;2023-04-08T13:31:28;13.43;;;2.63;;
64244;SDS011;50584;29.058;-110.966;2023-04-08T13:33:54;6.00;;;2.47;;
64244;SDS011;50584;29.058;-110.966;2023-04-08T13:36:20;2.83;;;2.45;;
64244;SDS011;50584;29.058;-110.966;2023-04-08T13:38:45;8.73;;;2.50;;
64244;SDS011;50584;29.058;-110.966;2023-04-08T13:41:11;4.80;;;2.40;;
64244;SDS011;50584;29.058;-110.966;2023-04-08T13:43:37;8.88;;;2.20;;
64244;SDS011;50584;29.058;-110.966;2023-04-08T13:46:03;2.03;;;1.83;;
64244;SDS011;50584;29.058;-110.966;2023-04-08T13:48:29;4.38;;;2.53;;
64244;SDS011;50584;29.058;-110.966;2023-04-08T13:50:55;3.33;;;2.10;;
64244;SDS011;50584;29.058;-110.966;2023-04-08T13:53:20;7.72;;;2.53;;
64244;SDS011;50584;29.058;-110.966;2023-04-08T13:55:46;4.65;;;2.30;;
64244;SDS011;50584;29.058;-110.966;2023-04-08T13:58:12;6.05;;;2.17;;
64244;SDS011;50584;29.058;-110.966;2023-04-08T14:00:38;6.47;;;2.13;;
64244;SDS011;50584;29.058;-110.966;2023-04-08T14:03:03;15.95;;;2.10;;
64244;SDS011;50584;29.058;-110.966;2023-04-08T14:05:30;9.45;;;1.92;;
64244;SDS011;50584;29.058;-110.966;2023-04-08T14:07:56;7.10;;;2.50;;
64244;SDS011;50584;29.058;-110.966;2023-04-08T14:10:21;5.68;;;1.92;;
64244;SDS011;50584;29.058;-110.966;2023-04-08T14:12:47;11.13;;;2.22;;
64244;SDS011;50584;29.058;-110.966;2023-04-08T14:15:13;6.57;;;2.00;;
64244;SDS011;50584;29.058;-110.966;2023-04-08T14:17:39;13.45;;;2.72;;